createdAt,value
2019-03-24T00:00:12.183Z,82.47
2019-03-24T00:02:41.519Z,100.37
2019-03-24T00:05:11.148Z,89.07
2019-03-24T00:07:40.415Z,89.27
2019-03-24T00:10:10.175Z,92.50
2019-03-24T00:12:39.443Z,92.87
2019-03-24T00:15:09.492Z,103.33
2019-03-24T00:17:38.768Z,100.10
2019-03-24T00:20:10.274Z,83.37
2019-03-24T00:22:39.740Z,98.80
2019-03-24T00:25:10.038Z,89.13
2019-03-24T00:27:39.302Z,91.63
2019-03-24T00:30:09.881Z,103.60
2019-03-24T00:32:39.494Z,105.97
2019-03-24T00:35:09.408Z,99.80
2019-03-24T00:37:38.686Z,85.80
2019-03-24T00:40:09.311Z,102.30
2019-03-24T00:42:38.602Z,101.33
2019-03-24T00:45:09.388Z,105.05
2019-03-24T00:47:38.680Z,103.22
2019-03-24T00:50:08.461Z,97.35
2019-03-24T00:52:37.743Z,109.13
2019-03-24T00:55:10.640Z,112.80
2019-03-24T00:57:40.275Z,95.53
2019-03-24T01:00:11.261Z,102.15
2019-03-24T01:02:40.543Z,106.97
2019-03-24T01:05:10.560Z,110.30
2019-03-24T01:07:39.992Z,108.90
2019-03-24T01:10:09.763Z,115.72
2019-03-24T01:12:39.368Z,108.45
2019-03-24T01:15:09.051Z,104.30
2019-03-24T01:17:39.212Z,98.00
2019-03-24T01:20:09.294Z,106.40
2019-03-24T01:22:38.575Z,119.55
2019-03-24T01:25:08.420Z,100.78
2019-03-24T01:27:37.704Z,109.95
2019-03-24T01:30:10.110Z,105.37
2019-03-24T01:32:39.401Z,108.78
2019-03-24T01:35:09.180Z,120.40
2019-03-24T01:37:38.471Z,100.90
2019-03-24T01:40:08.375Z,113.75
2019-03-24T01:42:37.660Z,114.22
2019-03-24T01:45:10.311Z,114.90
2019-03-24T01:47:39.667Z,115.05
2019-03-24T01:50:09.872Z,112.92
2019-03-24T01:52:39.152Z,99.40
2019-03-24T01:55:08.637Z,109.03
2019-03-24T01:57:37.919Z,111.70
2019-03-24T02:00:08.773Z,113.37
2019-03-24T02:02:38.369Z,113.45
2019-03-24T02:05:08.395Z,119.95
2019-03-24T02:07:37.678Z,106.87
2019-03-24T02:10:10.097Z,104.95
2019-03-24T02:12:39.448Z,95.62
2019-03-24T02:15:10.735Z,103.60
2019-03-24T02:17:40.009Z,99.77
2019-03-24T02:20:09.722Z,101.95
2019-03-24T02:22:39.002Z,95.95
2019-03-24T02:25:08.810Z,104.78
2019-03-24T02:27:38.440Z,100.35
2019-03-24T02:30:10.047Z,109.27
2019-03-24T02:32:39.311Z,103.17
2019-03-24T02:35:08.835Z,105.67
2019-03-24T02:37:38.411Z,102.67
2019-03-24T02:40:09.518Z,120.15
2019-03-24T02:42:39.058Z,107.10
2019-03-24T02:45:08.940Z,109.42
2019-03-24T02:47:38.215Z,111.35
2019-03-24T02:50:08.195Z,109.57
2019-03-24T02:52:37.479Z,102.95
2019-03-24T02:55:10.034Z,112.52
2019-03-24T02:57:39.316Z,101.95
2019-03-24T03:00:09.912Z,99.70
2019-03-24T03:02:39.188Z,113.32
2019-03-24T03:05:09.796Z,101.53
2019-03-24T03:07:39.082Z,108.63
2019-03-24T03:10:10.462Z,109.25
2019-03-24T03:12:39.752Z,112.30
2019-03-24T03:15:10.523Z,103.12
2019-03-24T03:17:39.861Z,95.17
2019-03-24T03:20:10.243Z,100.90
2019-03-24T03:22:39.581Z,111.57
2019-03-24T03:25:09.696Z,107.30
2019-03-24T03:27:38.973Z,112.08
2019-03-24T03:30:09.248Z,95.50
2019-03-24T03:32:38.520Z,119.13
2019-03-24T03:35:09.244Z,110.32
2019-03-24T03:37:38.478Z,111.08
2019-03-24T03:40:08.861Z,110.05
2019-03-24T03:42:39.766Z,109.37
2019-03-24T03:45:11.041Z,113.65
2019-03-24T03:47:40.832Z,106.97
2019-03-24T03:50:11.071Z,109.87
2019-03-24T03:52:40.330Z,101.18
2019-03-24T03:55:09.885Z,99.65
2019-03-24T03:57:39.161Z,97.22
2019-03-24T04:00:10.231Z,109.80
2019-03-24T04:02:39.512Z,105.43
2019-03-24T04:05:09.024Z,112.03
2019-03-24T04:07:38.307Z,102.45
2019-03-24T04:10:08.223Z,121.50
2019-03-24T04:12:37.496Z,116.93
2019-03-24T04:15:08.589Z,120.08
2019-03-24T04:17:37.859Z,114.75
2019-03-24T04:20:07.475Z,106.50
2019-03-24T04:22:36.750Z,105.03
2019-03-24T04:25:07.563Z,108.85
2019-03-24T04:27:36.908Z,119.95
2019-03-24T04:30:07.750Z,103.47
2019-03-24T04:32:37.016Z,110.50
2019-03-24T04:35:08.544Z,119.62
2019-03-24T04:37:37.806Z,105.12
2019-03-24T04:40:07.707Z,104.58
2019-03-24T04:42:36.963Z,112.45
2019-03-24T04:45:07.454Z,115.10
2019-03-24T04:47:36.971Z,101.15
2019-03-24T04:50:10.371Z,100.10
2019-03-24T04:52:39.655Z,115.42
2019-03-24T04:55:09.873Z,103.05
2019-03-24T04:57:39.146Z,103.83
2019-03-24T05:00:09.760Z,105.75
2019-03-24T05:02:39.105Z,112.40
2019-03-24T05:05:09.087Z,106.90
2019-03-24T05:07:38.995Z,103.83
2019-03-24T05:10:14.058Z,116.57
2019-03-24T05:12:43.323Z,104.70
2019-03-24T05:15:12.600Z,111.88
2019-03-24T05:17:42.175Z,110.30
2019-03-24T05:20:11.453Z,113.30
2019-03-24T05:22:40.721Z,101.18
2019-03-24T05:25:10.495Z,109.83
2019-03-24T05:27:40.105Z,120.33
2019-03-24T05:30:09.780Z,113.32
2019-03-24T05:32:39.051Z,110.75
2019-03-24T05:35:08.398Z,125.82
2019-03-24T05:37:37.668Z,115.08
2019-03-24T05:40:07.085Z,118.97
2019-03-24T05:42:36.355Z,125.38
2019-03-24T05:45:10.114Z,104.17
2019-03-24T05:47:39.720Z,106.30
2019-03-24T05:50:10.045Z,109.10
2019-03-24T05:52:39.313Z,120.50
2019-03-24T05:55:09.051Z,107.60
2019-03-24T05:57:38.321Z,92.35
2019-03-24T06:00:10.948Z,91.53
2019-03-24T06:02:40.214Z,97.75
2019-03-24T06:05:09.945Z,93.95
2019-03-24T06:07:39.555Z,101.20
2019-03-24T06:10:09.176Z,110.20
2019-03-24T06:12:38.444Z,108.35
2019-03-24T06:15:10.851Z,97.85
2019-03-24T06:17:47.740Z,99.77
2019-03-24T06:20:11.600Z,95.62
2019-03-24T06:22:40.874Z,88.95
2019-03-24T06:25:10.704Z,81.08
2019-03-24T06:27:40.299Z,78.42
2019-03-24T06:30:09.973Z,66.90
2019-03-24T06:32:39.253Z,73.00
2019-03-24T06:35:08.591Z,62.13
2019-03-24T06:37:38.712Z,62.20
2019-03-24T06:40:08.262Z,60.10
2019-03-24T06:42:37.854Z,61.15
2019-03-24T06:45:07.952Z,61.13
2019-03-24T06:47:37.231Z,57.93
2019-03-24T06:50:08.213Z,50.80
2019-03-24T06:52:37.482Z,55.00
2019-03-24T06:55:07.692Z,59.48
2019-03-24T06:57:36.964Z,56.75
2019-03-24T07:00:10.039Z,51.73
2019-03-24T07:02:39.633Z,54.42
2019-03-24T07:05:09.295Z,64.53
2019-03-24T07:07:38.572Z,74.80
2019-03-24T07:10:09.586Z,63.73
2019-03-24T07:12:38.926Z,65.05
2019-03-24T07:15:10.599Z,71.25
2019-03-24T07:17:39.876Z,66.90
2019-03-24T07:20:09.879Z,67.25
2019-03-24T07:22:39.155Z,67.10
2019-03-24T07:25:08.956Z,65.28
2019-03-24T07:27:38.231Z,65.92
2019-03-24T07:30:09.809Z,63.95
2019-03-24T07:32:39.114Z,71.17
2019-03-24T07:35:08.784Z,65.15
2019-03-24T07:37:38.127Z,65.60
2019-03-24T07:40:11.026Z,71.90
2019-03-24T07:42:40.304Z,65.42
2019-03-24T07:45:10.428Z,72.20
2019-03-24T07:47:39.707Z,64.92
2019-03-24T07:50:09.801Z,62.93
2019-03-24T07:52:39.306Z,56.73
2019-03-24T07:55:09.279Z,63.20
2019-03-24T07:57:38.560Z,74.37
2019-03-24T08:00:09.743Z,74.07
2019-03-24T08:02:50.677Z,69.20
2019-03-24T08:05:11.718Z,78.45
2019-03-24T08:07:41.001Z,67.30
2019-03-24T08:10:11.002Z,81.70
2019-03-24T08:12:40.347Z,71.72
2019-03-24T08:15:09.783Z,74.05
2019-03-24T08:17:39.067Z,67.62
2019-03-24T08:20:09.130Z,84.50
2019-03-24T08:22:38.739Z,88.97
2019-03-24T08:25:08.152Z,101.53
2019-03-24T08:27:37.432Z,105.60
2019-03-24T08:30:08.375Z,93.80
2019-03-24T08:32:37.659Z,97.10
2019-03-24T08:35:07.506Z,79.97
2019-03-24T08:37:36.785Z,82.60
2019-03-24T08:40:07.894Z,89.00
2019-03-24T08:42:37.178Z,105.20
2019-03-24T08:45:08.732Z,92.20
2019-03-24T08:47:38.020Z,80.30
2019-03-24T08:50:08.143Z,105.30
2019-03-24T08:52:37.429Z,90.90
2019-03-24T08:55:07.533Z,85.60
2019-03-24T08:57:36.816Z,80.33
2019-03-24T09:00:07.535Z,100.10
2019-03-24T09:02:36.820Z,82.33
2019-03-24T09:05:07.037Z,91.60
2019-03-24T09:07:36.328Z,105.77
2019-03-24T09:10:07.210Z,97.70
2019-03-24T09:12:36.501Z,109.87
2019-03-24T09:15:07.193Z,91.80
2019-03-24T09:17:36.562Z,79.60
2019-03-24T09:20:06.865Z,84.23
2019-03-24T09:22:36.159Z,82.40
2019-03-24T09:25:08.091Z,80.23
2019-03-24T09:27:37.381Z,85.60
2019-03-24T09:30:13.627Z,76.70
2019-03-24T09:32:42.914Z,82.63
2019-03-24T09:35:12.525Z,87.23
2019-03-24T09:37:41.808Z,99.97
2019-03-24T09:40:15.804Z,70.67
2019-03-24T09:42:45.087Z,75.53
2019-03-24T09:45:14.637Z,85.23
2019-03-24T09:47:43.915Z,91.83
2019-03-24T09:50:13.203Z,98.57
2019-03-24T09:52:42.477Z,84.23
2019-03-24T09:55:11.830Z,89.60
2019-03-24T09:57:41.105Z,84.90
2019-03-24T10:00:10.465Z,90.10
2019-03-24T10:02:40.044Z,97.23
2019-03-24T10:05:09.466Z,90.17
2019-03-24T10:07:38.741Z,85.47
2019-03-24T10:10:08.538Z,87.77
2019-03-24T10:12:37.818Z,90.10
2019-03-24T10:15:10.072Z,89.70
2019-03-24T10:17:39.645Z,87.30
2019-03-24T10:20:09.165Z,85.63
2019-03-24T10:22:38.749Z,87.87
2019-03-24T10:25:08.173Z,94.13
2019-03-24T10:27:37.450Z,83.30
2019-03-24T10:30:08.444Z,88.63
2019-03-24T10:32:37.727Z,94.90
2019-03-24T10:35:08.050Z,81.37
2019-03-24T10:37:37.334Z,91.10
2019-03-24T10:40:07.425Z,97.73
2019-03-24T10:42:37.512Z,82.80
2019-03-24T10:45:07.888Z,82.03
2019-03-24T10:47:37.169Z,83.87
2019-03-24T10:50:10.670Z,77.27
2019-03-24T10:52:40.008Z,84.57
2019-03-24T10:55:12.098Z,79.90
2019-03-24T10:57:41.374Z,79.23
2019-03-24T11:00:17.359Z,77.53
2019-03-24T11:02:46.882Z,82.47
2019-03-24T11:05:16.435Z,83.00
2019-03-24T11:07:45.705Z,80.50
2019-03-24T11:10:15.061Z,76.80
2019-03-24T11:12:44.626Z,73.53
2019-03-24T11:15:13.985Z,69.87
2019-03-24T11:17:43.258Z,72.73
2019-03-24T11:20:13.045Z,77.70
2019-03-24T11:22:42.651Z,72.63
2019-03-24T11:25:12.382Z,75.20
2019-03-24T11:27:41.651Z,74.40
2019-03-24T11:30:13.147Z,76.23
2019-03-24T11:32:43.203Z,79.23
2019-03-24T11:35:12.575Z,68.43
2019-03-24T11:37:41.846Z,69.77
2019-03-24T11:40:12.448Z,68.50
2019-03-24T11:42:41.719Z,65.90
2019-03-24T11:45:13.286Z,64.83
2019-03-24T11:47:42.552Z,65.37
2019-03-24T11:50:12.585Z,67.87
2019-03-24T11:52:41.857Z,62.07
2019-03-24T11:55:11.849Z,68.13
2019-03-24T11:57:41.190Z,67.73
2019-03-24T12:00:15.726Z,67.30
2019-03-24T12:02:44.996Z,60.03
2019-03-24T12:05:14.886Z,62.20
2019-03-24T12:07:44.157Z,62.93
2019-03-24T12:10:14.089Z,57.77
2019-03-24T12:12:43.367Z,59.07
2019-03-24T12:15:12.916Z,65.33
2019-03-24T12:17:43.858Z,62.47
2019-03-24T12:20:13.283Z,57.80
2019-03-24T12:22:42.560Z,60.87
2019-03-24T12:25:11.905Z,63.60
2019-03-24T12:27:41.176Z,53.87
2019-03-24T12:30:11.713Z,61.80
2019-03-24T12:32:40.985Z,67.57
2019-03-24T12:35:10.335Z,61.03
2019-03-24T12:37:39.887Z,65.40
2019-03-24T12:40:10.681Z,57.40
2019-03-24T12:42:40.441Z,63.10
2019-03-24T12:45:12.058Z,58.77
2019-03-24T12:47:41.344Z,62.70
2019-03-24T12:50:11.403Z,63.63
2019-03-24T12:52:41.013Z,58.47
2019-03-24T12:55:10.735Z,55.23
2019-03-24T12:57:40.011Z,57.03
2019-03-24T13:00:13.000Z,59.77
2019-03-24T13:02:42.279Z,61.70
2019-03-24T13:05:13.815Z,57.40
2019-03-24T13:07:43.376Z,62.43
2019-03-24T13:10:13.803Z,60.60
2019-03-24T13:12:43.409Z,56.57
2019-03-24T13:15:13.026Z,55.40
2019-03-24T13:17:42.302Z,59.73
2019-03-24T13:20:22.561Z,54.23
2019-03-24T13:22:42.946Z,55.63
2019-03-24T13:25:12.310Z,52.27
2019-03-24T13:27:41.574Z,50.80
2019-03-24T13:30:11.288Z,49.90
2019-03-24T13:32:40.570Z,50.57
2019-03-24T13:35:09.927Z,60.43
2019-03-24T13:37:39.495Z,50.30
2019-03-24T13:40:08.902Z,69.10
2019-03-24T13:42:38.499Z,113.80
2019-03-24T13:45:08.415Z,50.97
2019-03-24T13:47:37.764Z,54.93
2019-03-24T13:50:08.746Z,52.80
2019-03-24T13:52:38.038Z,51.83
2019-03-24T13:55:07.981Z,61.47
2019-03-24T13:57:37.274Z,58.13
2019-03-24T14:00:09.625Z,59.07
2019-03-24T14:02:38.909Z,55.67
2019-03-24T14:05:08.185Z,51.83
2019-03-24T14:07:37.464Z,51.30
2019-03-24T14:10:08.683Z,50.37
2019-03-24T14:12:37.970Z,48.87
2019-03-24T14:15:08.297Z,51.23
2019-03-24T14:17:37.848Z,50.97
2019-03-24T14:20:08.863Z,57.37
2019-03-24T14:22:38.150Z,52.07
2019-03-24T14:25:08.186Z,53.73
2019-03-24T14:27:37.473Z,59.90
2019-03-24T14:30:07.880Z,57.37
2019-03-24T14:32:37.163Z,50.50
2019-03-24T14:35:07.697Z,50.40
2019-03-24T14:37:37.236Z,48.63
2019-03-24T14:40:07.609Z,50.43
2019-03-24T14:42:36.893Z,52.90
2019-03-24T14:45:08.741Z,48.87
2019-03-24T14:47:38.193Z,48.87
2019-03-24T14:50:08.172Z,52.03
2019-03-24T14:52:37.459Z,51.27
2019-03-24T14:55:06.968Z,53.90
2019-03-24T14:57:36.257Z,49.53
2019-03-24T15:00:08.856Z,49.73
2019-03-24T15:02:38.148Z,45.93
2019-03-24T15:05:09.831Z,51.40
2019-03-24T15:07:39.113Z,51.20
2019-03-24T15:10:08.539Z,52.50
2019-03-24T15:12:37.825Z,53.67
2019-03-24T15:15:08.005Z,61.60
2019-03-24T15:17:37.296Z,53.90
2019-03-24T15:20:07.806Z,51.83
2019-03-24T15:22:37.442Z,53.40
2019-03-24T15:25:07.155Z,52.67
2019-03-24T15:27:36.449Z,53.00
2019-03-24T15:30:09.655Z,49.70
2019-03-24T15:32:39.249Z,53.17
2019-03-24T15:35:09.359Z,52.70
2019-03-24T15:37:38.977Z,54.63
2019-03-24T15:40:09.196Z,52.63
2019-03-24T15:42:38.487Z,54.90
2019-03-24T15:45:10.146Z,55.53
2019-03-24T15:47:39.436Z,56.80
2019-03-24T15:50:09.650Z,54.77
2019-03-24T15:52:39.160Z,53.87
2019-03-24T15:55:08.587Z,55.03
2019-03-24T15:57:38.200Z,57.97
2019-03-24T16:00:10.496Z,51.83
2019-03-24T16:02:39.934Z,54.13
2019-03-24T16:05:09.426Z,53.10
2019-03-24T16:07:38.982Z,49.87
2019-03-24T16:10:08.363Z,54.47
2019-03-24T16:12:37.614Z,53.07
2019-03-24T16:15:11.399Z,48.77
2019-03-24T16:17:40.673Z,53.87
2019-03-24T16:20:10.296Z,52.30
2019-03-24T16:22:39.566Z,57.10
2019-03-24T16:25:09.412Z,56.37
2019-03-24T16:27:38.690Z,49.83
2019-03-24T16:30:09.073Z,48.13
2019-03-24T16:32:38.348Z,51.47
2019-03-24T16:35:07.770Z,50.87
2019-03-24T16:37:37.107Z,47.77
2019-03-24T16:40:08.250Z,55.13
2019-03-24T16:42:37.537Z,46.00
2019-03-24T16:45:06.988Z,47.60
2019-03-24T16:47:36.263Z,46.37
2019-03-24T16:50:07.562Z,47.73
2019-03-24T16:52:36.839Z,45.77
2019-03-24T16:55:09.236Z,50.30
2019-03-24T16:57:38.510Z,51.60
2019-03-24T17:00:08.506Z,46.03
2019-03-24T17:02:37.779Z,53.07
2019-03-24T17:05:08.670Z,52.87
2019-03-24T17:07:37.947Z,55.47
2019-03-24T17:10:07.979Z,50.80
2019-03-24T17:12:37.590Z,51.23
2019-03-24T17:15:09.156Z,51.13
2019-03-24T17:17:38.514Z,48.83
2019-03-24T17:20:10.806Z,51.30
2019-03-24T17:22:40.135Z,54.97
2019-03-24T17:25:09.909Z,54.97
2019-03-24T17:27:39.183Z,55.23
2019-03-24T17:30:11.442Z,52.97
2019-03-24T17:32:40.714Z,54.37
2019-03-24T17:35:10.399Z,51.30
2019-03-24T17:37:39.670Z,54.60
2019-03-24T17:40:12.526Z,57.57
2019-03-24T17:42:41.568Z,51.13
2019-03-24T17:45:12.262Z,55.60
2019-03-24T17:47:41.546Z,53.10
2019-03-24T17:50:12.172Z,53.83
2019-03-24T17:52:41.857Z,56.30
2019-03-24T17:55:11.451Z,48.97
2019-03-24T17:57:40.733Z,51.00
2019-03-24T18:00:15.481Z,57.00
2019-03-24T18:02:44.756Z,53.40
2019-03-24T18:05:14.554Z,57.77
2019-03-24T18:07:43.837Z,49.37
2019-03-24T18:10:14.132Z,55.63
2019-03-24T18:12:43.404Z,58.03
2019-03-24T18:15:12.930Z,53.90
2019-03-24T18:17:42.203Z,55.40
2019-03-24T18:20:12.459Z,56.37
2019-03-24T18:22:41.739Z,50.23
2019-03-24T18:25:11.222Z,51.80
2019-03-24T18:27:40.441Z,48.97
2019-03-24T18:30:12.338Z,53.03
2019-03-24T18:32:41.620Z,61.00
2019-03-24T18:35:11.625Z,54.20
2019-03-24T18:37:40.903Z,49.53
2019-03-24T18:40:11.305Z,52.03
2019-03-24T18:42:40.976Z,52.13
2019-03-24T18:45:12.167Z,53.73
2019-03-24T18:47:41.510Z,53.43
2019-03-24T18:50:12.148Z,51.17
2019-03-24T18:52:41.774Z,50.00
2019-03-24T18:55:12.430Z,48.70
2019-03-24T18:57:41.717Z,49.50
2019-03-24T19:00:14.039Z,54.10
2019-03-24T19:02:43.322Z,47.40
2019-03-24T19:05:13.290Z,53.80
2019-03-24T19:07:42.577Z,51.80
2019-03-24T19:10:13.466Z,53.93
2019-03-24T19:12:43.020Z,55.17
2019-03-24T19:15:14.809Z,46.47
2019-03-24T19:17:44.170Z,51.37
2019-03-24T19:20:15.102Z,44.20
2019-03-24T19:22:44.738Z,46.87
2019-03-24T19:25:14.159Z,49.30
2019-03-24T19:27:43.445Z,51.10
2019-03-24T19:30:16.206Z,53.77
2019-03-24T19:32:45.505Z,56.13
2019-03-24T19:35:15.220Z,54.70
2019-03-24T19:37:46.652Z,49.30
2019-03-24T19:40:30.367Z,53.13
2019-03-24T19:42:59.649Z,44.57
2019-03-24T19:45:28.926Z,43.63
2019-03-24T19:47:58.220Z,50.20
2019-03-24T19:50:27.564Z,51.93
2019-03-24T19:52:56.853Z,46.53
2019-03-24T19:55:26.141Z,49.20
2019-03-24T19:57:55.770Z,46.17
2019-03-24T20:00:24.999Z,43.30
2019-03-24T20:02:54.301Z,43.90
2019-03-24T20:05:23.576Z,41.73
2019-03-24T20:07:52.861Z,43.90
2019-03-24T20:10:22.136Z,43.67
2019-03-24T20:12:51.430Z,44.43
2019-03-24T20:15:20.704Z,44.30
2019-03-24T20:17:49.993Z,47.60
2019-03-24T20:20:19.266Z,46.73
2019-03-24T20:22:56.522Z,48.40
2019-03-24T20:25:19.555Z,44.73
2019-03-24T20:27:48.842Z,46.73
2019-03-24T20:30:18.784Z,43.03
2019-03-24T20:32:48.070Z,46.07
2019-03-24T20:35:17.537Z,44.93
2019-03-24T20:37:46.830Z,38.00
2019-03-24T20:40:16.598Z,40.60
2019-03-24T20:42:45.882Z,37.50
2019-03-24T20:45:15.499Z,40.17
2019-03-24T20:47:45.123Z,43.37
2019-03-24T20:50:14.921Z,42.30
2019-03-24T20:52:44.282Z,42.57
2019-03-24T20:55:14.041Z,48.00
2019-03-24T20:57:43.651Z,36.80
2019-03-24T21:00:13.769Z,39.13
2019-03-24T21:02:43.050Z,42.27
2019-03-24T21:05:12.677Z,41.40
2019-03-24T21:07:41.966Z,38.90
2019-03-24T21:10:12.125Z,39.60
2019-03-24T21:12:41.418Z,38.67
2019-03-24T21:15:11.604Z,44.97
2019-03-24T21:17:41.110Z,41.80
2019-03-24T21:20:10.930Z,38.87
2019-03-24T21:22:40.227Z,43.17
2019-03-24T21:25:09.941Z,38.50
2019-03-24T21:27:39.231Z,36.57
2019-03-24T21:30:10.920Z,37.47
2019-03-24T21:32:40.210Z,31.70
2019-03-24T21:35:09.808Z,34.47
2019-03-24T21:37:39.337Z,30.50
2019-03-24T21:40:08.947Z,30.93
2019-03-24T21:42:38.236Z,31.60
2019-03-24T21:45:08.556Z,32.23
2019-03-24T21:47:38.097Z,33.97
2019-03-24T21:50:08.107Z,32.30
2019-03-24T21:52:37.680Z,33.47
2019-03-24T21:55:07.185Z,32.40
2019-03-24T21:57:36.473Z,31.13
2019-03-24T22:00:08.467Z,41.07
2019-03-24T22:02:37.754Z,30.37
2019-03-24T22:05:07.541Z,34.60
2019-03-24T22:07:36.853Z,34.23
2019-03-24T22:10:07.581Z,33.00
2019-03-24T22:12:36.870Z,35.63
2019-03-24T22:15:09.026Z,35.17
2019-03-24T22:17:38.314Z,35.87
2019-03-24T22:20:08.482Z,34.20
2019-03-24T22:22:37.769Z,30.43
2019-03-24T22:25:07.923Z,29.57
2019-03-24T22:27:37.211Z,28.27
2019-03-24T22:30:10.372Z,28.00
2019-03-24T22:32:39.654Z,25.50
2019-03-24T22:35:08.929Z,25.70
2019-03-24T22:37:38.218Z,32.20
2019-03-24T22:40:08.905Z,26.37
2019-03-24T22:42:38.202Z,22.87
2019-03-24T22:45:08.024Z,28.37
2019-03-24T22:47:37.296Z,25.40
2019-03-24T22:50:08.561Z,27.60
2019-03-24T22:52:38.292Z,31.00
2019-03-24T22:55:10.004Z,28.77
2019-03-24T22:57:39.560Z,30.17
2019-03-24T23:00:15.743Z,28.80
2019-03-24T23:02:45.023Z,28.90
2019-03-24T23:05:14.308Z,28.27
2019-03-24T23:07:43.586Z,29.47
2019-03-24T23:10:12.946Z,35.73
2019-03-24T23:12:42.541Z,31.60
2019-03-24T23:15:11.820Z,31.93
2019-03-24T23:17:41.165Z,35.07
2019-03-24T23:20:10.793Z,41.47
2019-03-24T23:22:40.068Z,37.00
2019-03-24T23:25:09.499Z,35.13
2019-03-24T23:27:38.780Z,36.00
2019-03-24T23:30:09.508Z,32.87
2019-03-24T23:32:38.784Z,38.40
2019-03-24T23:35:10.225Z,35.30
2019-03-24T23:37:39.505Z,31.03
2019-03-24T23:40:09.440Z,36.70
2019-03-24T23:42:38.713Z,32.70
2019-03-24T23:45:10.412Z,30.70
2019-03-24T23:47:40.310Z,26.10
2019-03-24T23:50:10.410Z,30.10
2019-03-24T23:52:39.690Z,29.10
2019-03-24T23:55:09.052Z,30.20
2019-03-24T23:57:38.339Z,25.07
